Time;durP1;ratioP1;P1;durP2;ratioP2;P2;SDS_P1;SDS_P2;PMS_P1;PMS_P2;Temp;Humidity;BMP_temperature;BMP_pressure;BME280_temperature;BME280_humidity;BME280_pressure;Samples;Min_cycle;Max_cycle;Signal;HPM_P1;HPM_P2
2023/05/29 00:00:26;;;;;;;;;19.67;16.33;;;;;16.76;64.73;101876.47;5074947;27;45300;-65
2023/05/29 00:02:51;;;;;;;;;13.33;12.00;;;;;16.50;65.75;101835.56;5073930;27;46364;-65
2023/05/29 00:05:17;;;;;;;;;23.33;22.00;;;;;16.69;65.86;101874.91;5074093;27;45560;-65
2023/05/29 00:07:43;;;;;;;;;26.00;16.33;;;;;16.65;65.55;101875.91;5074476;27;45565;-65
2023/05/29 00:10:11;;;;;;;;;29.33;22.00;;;;;16.64;66.34;101879.47;5077623;27;45368;-65
2023/05/29 00:12:37;;;;;;;;;25.33;19.00;;;;;16.56;65.92;101865.56;5077544;27;45411;-65
2023/05/29 00:15:03;;;;;;;;;17.00;15.33;;;;;16.56;66.42;101870.88;5077505;27;45468;-65
2023/05/29 00:17:31;;;;;;;;;16.67;14.00;;;;;16.55;66.57;101883.28;5077764;27;45489;-65
2023/05/29 00:19:58;;;;;;;;;20.67;19.00;;;;;16.45;66.16;101873.84;5077873;27;45400;-65
2023/05/29 00:22:23;;;;;;;;;16.67;14.67;;;;;16.50;67.21;101885.22;5077295;27;46446;-65
2023/05/29 00:24:49;;;;;;;;;22.33;18.33;;;;;16.35;65.93;101867.91;5077729;27;45345;-65
2023/05/29 00:27:14;;;;;;;;;19.00;14.67;;;;;16.43;66.32;101892.47;5077536;27;45258;-65
2023/05/29 00:29:40;;;;;;;;;22.67;19.67;;;;;16.35;67.95;101889.16;5077871;27;45488;-65
2023/05/29 00:32:06;;;;;;;;;17.67;16.33;;;;;16.17;68.57;101858.69;5077311;27;46296;-65
2023/05/29 00:34:31;;;;;;;;;20.33;16.67;;;;;16.26;68.36;101878.81;5077429;27;45731;-65
2023/05/29 00:36:57;;;;;;;;;20.00;17.33;;;;;16.31;67.53;101899.03;5077713;28;45444;-66
2023/05/29 00:39:23;;;;;;;;;26.67;21.33;;;;;16.26;68.11;101895.63;5077186;27;45455;-65
2023/05/29 00:41:50;;;;;;;;;19.00;15.33;;;;;16.19;68.85;101880.75;5077288;27;45874;-65
2023/05/29 00:44:20;;;;;;;;;18.67;17.67;;;;;16.20;68.78;101885.16;5077155;27;45670;-65
2023/05/29 00:46:46;;;;;;;;;27.33;19.67;;;;;16.19;67.51;101894.03;5077181;27;45498;-65
2023/05/29 00:49:13;;;;;;;;;23.67;19.67;;;;;16.04;68.79;101875.88;5077403;27;45483;-65
2023/05/29 00:51:39;;;;;;;;;20.33;18.33;;;;;16.11;69.15;101888.94;5076821;27;46330;-65
2023/05/29 00:54:07;;;;;;;;;25.67;19.33;;;;;16.05;68.65;101888.22;5076884;27;45336;-65
2023/05/29 00:56:35;;;;;;;;;24.67;22.00;;;;;15.84;69.61;101862.25;5077253;27;45392;-66
2023/05/29 00:59:01;;;;;;;;;22.67;20.00;;;;;15.96;69.59;101884.03;5077307;27;45570;-65
2023/05/29 01:01:26;;;;;;;;;25.33;19.67;;;;;15.97;70.21;101891.97;5076906;27;45694;-65
2023/05/29 01:03:57;;;;;;;;;22.67;20.67;;;;;15.97;69.18;101905.25;5076696;27;45736;-65
2023/05/29 01:06:23;;;;;;;;;25.67;21.33;;;;;15.95;70.44;101900.91;5076964;27;45367;-65
2023/05/29 01:08:48;;;;;;;;;20.33;20.00;;;;;15.83;69.77;101884.38;5077152;27;45479;-65
2023/05/29 01:11:39;;;;;;;;;24.33;21.00;;;;;15.92;68.96;101906.31;5076626;27;45831;-65
2023/05/29 01:14:10;;;;;;;;;21.67;18.33;;;;;15.84;68.64;101906.50;5076785;27;45736;-65
2023/05/29 01:16:48;;;;;;;;;22.33;19.33;;;;;15.79;69.83;101905.75;5076917;27;45530;-65
2023/05/29 01:19:35;;;;;;;;;22.67;17.00;;;;;15.80;68.74;101907.47;5077025;27;45383;-65
2023/05/29 01:22:39;;;;;;;;;18.00;18.00;;;;;15.67;68.37;101893.66;5075390;27;45408;-65
2023/05/29 01:25:23;;;;;;;;;20.33;19.67;;;;;15.76;68.59;101911.97;5076377;27;45404;-65
2023/05/29 01:27:49;;;;;;;;;25.33;21.00;;;;;15.70;69.44;101901.53;5076492;27;45376;-65
2023/05/29 01:30:16;;;;;;;;;20.33;17.33;;;;;15.71;68.90;101907.69;5076669;27;45858;-65
2023/05/29 01:32:42;;;;;;;;;19.33;16.67;;;;;15.65;69.80;101904.31;5076595;27;45411;-65
2023/05/29 01:35:08;;;;;;;;;17.33;14.33;;;;;15.63;69.34;101914.06;5076581;27;45328;-65
2023/05/29 01:37:34;;;;;;;;;21.33;20.00;;;;;15.59;70.24;101906.22;5076369;27;45432;-65
2023/05/29 01:40:00;;;;;;;;;25.33;18.67;;;;;15.58;69.85;101918.66;5076464;27;45308;-66
2023/05/29 01:42:28;;;;;;;;;21.33;16.33;;;;;15.58;69.72;101915.09;5076233;28;45405;-65
2023/05/29 01:44:55;;;;;;;;;20.33;17.00;;;;;15.53;69.50;101914.34;5076214;27;45395;-65
2023/05/29 01:47:21;;;;;;;;;24.00;16.33;;;;;15.52;68.88;101902.84;5076330;27;45587;-65
2023/05/29 01:49:50;;;;;;;;;13.67;13.00;;;;;15.49;68.59;101909.13;5076453;27;45237;-65
2023/05/29 01:52:15;;;;;;;;;21.33;18.33;;;;;15.37;69.43;101911.19;5075836;27;47454;-65
2023/05/29 01:54:41;;;;;;;;;22.33;19.33;;;;;15.39;69.71;101917.34;5076157;28;45736;-65
2023/05/29 01:57:07;;;;;;;;;21.33;20.00;;;;;15.35;70.13;101913.00;5076235;27;45498;-65
2023/05/29 01:59:35;;;;;;;;;24.67;17.00;;;;;15.41;69.81;101913.75;5076194;28;45460;-65
2023/05/29 02:02:10;;;;;;;;;16.67;16.00;;;;;15.35;69.15;101908.59;5075922;27;46384;-65
2023/05/29 02:04:35;;;;;;;;;19.33;14.67;;;;;15.35;69.44;101916.56;5075083;27;45359;-66
2023/05/29 02:07:01;;;;;;;;;12.00;12.00;;;;;15.27;69.99;101924.66;5075228;27;45369;-65
2023/05/29 02:09:26;;;;;;;;;15.33;13.33;;;;;15.26;69.70;101922.94;5075111;27;45679;-65
2023/05/29 02:11:52;;;;;;;;;13.00;13.00;;;;;15.28;69.34;101912.28;5074739;27;46728;-65
2023/05/29 02:14:17;;;;;;;;;13.00;13.00;;;;;15.24;68.89;101908.81;5075115;27;45439;-64
2023/05/29 02:16:43;;;;;;;;;11.33;11.33;;;;;15.22;68.43;101912.41;5074964;27;45436;-65
2023/05/29 02:19:09;;;;;;;;;15.00;12.00;;;;;15.18;68.76;101908.13;5074877;27;45476;-65
2023/05/29 02:21:38;;;;;;;;;10.33;10.00;;;;;15.18;68.21;101916.06;5074733;27;46460;-65
2023/05/29 02:24:04;;;;;;;;;16.00;10.67;;;;;15.14;69.33;101916.13;5074541;27;45372;-65
2023/05/29 02:26:29;;;;;;;;;12.67;9.00;;;;;15.11;67.82;101915.34;5074919;27;45821;-65
2023/05/29 02:28:55;;;;;;;;;13.33;11.67;;;;;15.01;68.62;101906.69;5075443;27;45664;-65
2023/05/29 02:31:20;;;;;;;;;11.00;8.33;;;;;14.94;68.57;101900.69;5073886;27;46213;-65
2023/05/29 02:33:45;;;;;;;;;8.00;5.00;;;;;15.01;68.73;101917.31;5074906;27;45331;-64
2023/05/29 02:36:11;;;;;;;;;10.67;7.67;;;;;14.98;68.65;101912.94;5074361;27;45740;-65
2023/05/29 02:38:37;;;;;;;;;11.67;7.33;;;;;14.95;68.47;101912.16;5074932;27;45479;-65
2023/05/29 02:41:02;;;;;;;;;15.33;9.33;;;;;14.92;68.56;101922.84;5074620;27;45597;-65
2023/05/29 02:43:27;;;;;;;;;11.00;7.67;;;;;14.84;68.63;101912.41;5074439;27;45398;-65
2023/05/29 02:45:53;;;;;;;;;9.00;6.67;;;;;14.74;69.19;101898.47;5074832;27;45521;-65
2023/05/29 02:48:18;;;;;;;;;8.67;6.67;;;;;14.69;68.10;101892.38;5074376;27;45582;-65
2023/05/29 02:50:43;;;;;;;;;10.33;8.00;;;;;14.74;68.80;101905.53;5074734;27;45440;-64
2023/05/29 02:53:09;;;;;;;;;10.33;8.67;;;;;14.68;68.15;101901.25;5074422;27;45394;-65
2023/05/29 02:55:35;;;;;;;;;10.67;7.67;;;;;14.65;68.60;101898.66;5074292;27;45420;-64
2023/05/29 02:58:01;;;;;;;;;9.33;7.67;;;;;14.66;68.63;101903.06;5074887;27;45426;-65
2023/05/29 03:00:28;;;;;;;;;11.00;9.67;;;;;14.53;68.69;101888.28;5073953;27;45807;-64
2023/05/29 03:02:54;;;;;;;;;12.33;5.33;;;;;14.60;68.46;101905.81;5074106;27;45321;-65
2023/05/29 03:05:19;;;;;;;;;9.67;8.00;;;;;14.57;68.87;101906.72;5074524;27;45415;-64
2023/05/29 03:07:45;;;;;;;;;13.67;10.00;;;;;14.60;68.89;101906.66;5074076;28;45592;-65
2023/05/29 03:10:10;;;;;;;;;13.33;7.33;;;;;14.56;68.50;101902.31;5074169;27;45733;-64
2023/05/29 03:12:35;;;;;;;;;12.00;7.67;;;;;14.58;67.73;101905.84;5073965;27;45701;-65
2023/05/29 03:15:01;;;;;;;;;5.33;5.33;;;;;14.55;68.04;101905.91;5074513;27;45447;-64
2023/05/29 03:17:26;;;;;;;;;5.67;5.00;;;;;14.52;68.67;101910.38;5073971;27;45549;-65
2023/05/29 03:19:51;;;;;;;;;11.67;7.00;;;;;14.49;67.01;101905.16;5074096;27;46455;-65
2023/05/29 03:22:17;;;;;;;;;12.00;7.33;;;;;14.48;67.85;101911.34;5074098;27;45443;-65
2023/05/29 03:24:42;;;;;;;;;8.67;5.67;;;;;14.48;67.40;101908.69;5073891;27;45550;-64
2023/05/29 03:27:08;;;;;;;;;6.67;6.67;;;;;14.47;67.54;101907.84;5074426;27;45331;-65
2023/05/29 03:29:33;;;;;;;;;9.00;7.00;;;;;14.47;66.71;101910.47;5073586;28;45454;-65
2023/05/29 03:31:58;;;;;;;;;7.67;6.00;;;;;14.43;67.10;101911.44;5074141;27;45487;-64
2023/05/29 03:34:24;;;;;;;;;5.00;5.00;;;;;14.34;66.80;101898.38;5073848;27;45580;-64
2023/05/29 03:36:49;;;;;;;;;6.00;5.33;;;;;14.31;66.35;101899.31;5074070;27;45799;-64
2023/05/29 03:39:15;;;;;;;;;10.33;6.33;;;;;14.36;66.78;101918.66;5073954;27;46436;-64
2023/05/29 03:41:40;;;;;;;;;8.33;4.67;;;;;14.28;66.82;101912.63;5072974;27;45739;-64
2023/05/29 03:44:05;;;;;;;;;4.33;2.67;;;;;14.14;66.06;101891.69;5075782;27;45723;-64
2023/05/29 03:46:31;;;;;;;;;9.00;5.00;;;;;14.27;66.29;101916.16;5077333;27;45448;-65
2023/05/29 03:48:57;;;;;;;;;7.33;4.00;;;;;13.98;66.30;101874.34;5077317;28;46468;-65
2023/05/29 03:51:22;;;;;;;;;9.67;5.00;;;;;14.31;65.88;101930.25;5077306;27;45399;-65
2023/05/29 03:53:47;;;;;;;;;9.00;6.00;;;;;14.27;65.69;101935.59;5076872;27;45822;-64
2023/05/29 03:56:13;;;;;;;;;5.67;4.00;;;;;14.20;66.28;101923.38;5077676;27;45649;-64
2023/05/29 03:58:38;;;;;;;;;8.00;4.00;;;;;14.16;65.60;101908.44;5076685;27;46345;-64
2023/05/29 04:01:04;;;;;;;;;9.67;5.00;;;;;14.27;66.13;101934.72;5077242;27;46503;-63
2023/05/29 04:03:30;;;;;;;;;7.00;6.00;;;;;14.26;66.04;101947.09;5077111;27;45513;-64
2023/05/29 04:05:56;;;;;;;;;7.00;6.00;;;;;14.25;64.98;101936.53;5077169;27;45629;-64
2023/05/29 04:08:21;;;;;;;;;7.00;5.67;;;;;14.17;65.39;101936.66;5077324;27;46311;-64
2023/05/29 04:10:46;;;;;;;;;7.00;7.00;;;;;14.22;65.45;101953.34;5076008;27;45714;-64
2023/05/29 04:13:12;;;;;;;;;6.00;4.67;;;;;14.18;65.08;101950.78;5077212;27;45475;-64
2023/05/29 04:15:37;;;;;;;;;6.00;6.00;;;;;14.15;65.38;101953.50;5077271;27;45429;-64
2023/05/29 04:18:03;;;;;;;;;8.67;5.00;;;;;14.09;65.38;101963.28;5076330;27;46924;-64
2023/05/29 04:20:29;;;;;;;;;5.33;4.00;;;;;14.16;64.85;101972.03;5077155;27;45319;-64
2023/05/29 04:22:55;;;;;;;;;8.00;5.00;;;;;14.11;64.66;101963.25;5076321;27;45707;-64
2023/05/29 04:25:20;;;;;;;;;9.00;7.33;;;;;14.08;64.35;101963.31;5077103;27;45305;-64
2023/05/29 04:27:48;;;;;;;;;4.00;3.00;;;;;14.12;64.32;101972.09;5076724;27;46727;-64
2023/05/29 04:30:14;;;;;;;;;7.33;5.67;;;;;14.15;63.92;101988.81;5068504;28;45577;-64
2023/05/29 04:32:40;;;;;;;;;5.00;3.00;;;;;14.10;64.04;101978.28;5076107;27;45918;-64
2023/05/29 04:35:06;;;;;;;;;5.67;4.00;;;;;14.13;63.73;101981.78;5076647;27;45420;-64
2023/05/29 04:37:37;;;;;;;;;3.67;3.00;;;;;14.15;63.47;101987.94;5076517;27;46626;-64
2023/05/29 04:40:08;;;;;;;;;8.67;5.00;;;;;14.15;63.21;102001.19;5075884;27;45430;-64
2023/05/29 04:42:33;;;;;;;;;7.00;5.00;;;;;14.16;63.05;102003.81;5076431;27;45420;-64
2023/05/29 04:45:00;;;;;;;;;6.00;4.33;;;;;14.13;62.78;101995.91;5076881;27;45324;-64
2023/05/29 04:47:26;;;;;;;;;9.00;4.00;;;;;14.05;62.79;101971.31;5076133;27;46391;-64
2023/05/29 04:49:51;;;;;;;;;8.33;5.00;;;;;14.18;62.23;101994.03;5076401;27;45411;-64
2023/05/29 04:52:17;;;;;;;;;3.00;3.00;;;;;14.18;62.21;101988.75;5076332;27;45565;-64
2023/05/29 04:54:42;;;;;;;;;5.67;4.00;;;;;14.19;61.22;101990.50;5076288;27;45431;-64
2023/05/29 04:57:08;;;;;;;;;3.67;3.67;;;;;14.20;61.20;101997.56;5075836;27;46328;-64
2023/05/29 04:59:34;;;;;;;;;7.00;4.00;;;;;14.17;60.94;102005.53;5076510;27;45474;-65
2023/05/29 05:01:59;;;;;;;;;8.67;5.00;;;;;14.23;61.14;101996.59;5076244;28;45697;-64
2023/05/29 05:04:24;;;;;;;;;7.00;3.67;;;;;14.32;60.20;101992.91;5076453;27;46394;-64
2023/05/29 05:06:51;;;;;;;;;7.00;5.00;;;;;15.11;58.74;101984.31;5075556;28;46143;-64
2023/05/29 05:09:17;;;;;;;;;3.67;3.67;;;;;15.53;56.42;101997.50;5076315;27;45367;-64
2023/05/29 05:11:42;;;;;;;;;7.67;3.67;;;;;14.99;56.38;101964.22;5075644;27;45544;-64
2023/05/29 05:14:08;;;;;;;;;3.00;2.00;;;;;15.01;57.54;102007.50;5076177;27;45328;-64
2023/05/29 05:16:33;;;;;;;;;7.00;2.33;;;;;14.83;57.45;101994.59;5075997;27;45827;-64
2023/05/29 05:18:58;;;;;;;;;5.67;2.00;;;;;14.77;57.83;102004.47;5075534;28;45338;-64
2023/05/29 05:21:24;;;;;;;;;5.00;2.33;;;;;14.78;57.74;102000.00;5075900;27;45379;-64
2023/05/29 05:23:49;;;;;;;;;9.67;4.00;;;;;14.79;58.02;102012.38;5076140;27;45735;-64
2023/05/29 05:26:15;;;;;;;;;4.00;2.67;;;;;14.71;57.71;102014.28;5075404;27;47215;-65
2023/05/29 05:28:40;;;;;;;;;3.33;1.67;;;;;14.73;57.01;102029.28;5075851;27;45249;-64
2023/05/29 05:31:06;;;;;;;;;4.67;4.67;;;;;14.42;57.38;101992.72;5075558;27;45688;-64
2023/05/29 05:33:31;;;;;;;;;2.33;2.33;;;;;14.65;57.47;102017.94;5076259;27;45540;-64
2023/05/29 05:35:56;;;;;;;;;5.33;2.00;;;;;14.67;57.61;102039.09;5075721;27;46625;-64
2023/05/29 05:38:22;;;;;;;;;3.00;2.33;;;;;14.66;57.28;102026.78;5075332;28;45894;-64
2023/05/29 05:40:47;;;;;;;;;3.67;2.67;;;;;14.70;57.18;102013.44;5075398;27;45417;-64
2023/05/29 05:43:12;;;;;;;;;6.00;2.67;;;;;14.82;57.27;102027.34;5075359;27;45439;-64
2023/05/29 05:45:41;;;;;;;;;8.00;3.33;;;;;14.76;57.31;102012.44;5075448;27;46281;-64
2023/05/29 05:48:07;;;;;;;;;3.67;3.33;;;;;14.82;56.70;102014.09;5075813;27;45331;-64
2023/05/29 05:50:33;;;;;;;;;3.00;3.00;;;;;14.92;56.78;102021.81;5075232;28;45432;-64
2023/05/29 05:52:58;;;;;;;;;4.00;2.00;;;;;14.73;56.55;101988.66;5075801;27;45357;-64
2023/05/29 05:55:26;;;;;;;;;4.67;3.00;;;;;14.95;56.44;102028.84;5074715;27;45472;-64
2023/05/29 05:57:51;;;;;;;;;3.67;1.67;;;;;14.95;56.54;102023.53;5075271;27;45401;-64
2023/05/29 06:00:17;;;;;;;;;3.00;3.00;;;;;14.94;56.67;102017.38;5075472;27;45762;-64
2023/05/29 06:02:44;;;;;;;;;3.33;3.00;;;;;14.92;56.28;102013.88;5075142;28;45755;-64
2023/05/29 06:05:11;;;;;;;;;6.00;3.33;;;;;14.92;56.38;102013.88;5074842;27;46198;-64
2023/05/29 06:07:37;;;;;;;;;4.00;2.33;;;;;15.10;56.35;102033.84;5073887;27;46523;-64
2023/05/29 06:10:03;;;;;;;;;1.67;1.67;;;;;15.06;56.07;102023.31;5075440;27;45914;-69
2023/05/29 06:12:29;;;;;;;;;9.00;3.00;;;;;15.06;56.39;102018.91;5074896;27;45841;-68
2023/05/29 06:14:55;;;;;;;;;4.67;1.67;;;;;15.10;55.35;102027.66;5074756;27;45417;-69
2023/05/29 06:17:21;;;;;;;;;3.00;3.00;;;;;15.21;56.03;102046.88;5074889;27;45414;-66
2023/05/29 06:19:46;;;;;;;;;4.33;3.67;;;;;15.19;55.57;102037.19;5074677;27;45450;-66
2023/05/29 06:22:11;;;;;;;;;6.00;3.00;;;;;15.38;55.71;102050.94;5074972;27;45679;-67
2023/05/29 06:24:37;;;;;;;;;5.67;3.00;;;;;15.37;55.11;102052.72;5074982;27;46336;-67
2023/05/29 06:27:02;;;;;;;;;5.00;2.00;;;;;15.39;54.89;102055.34;5074234;27;45714;-68
2023/05/29 06:29:28;;;;;;;;;2.67;1.33;;;;;15.40;54.87;102068.59;5074891;27;45419;-66
2023/05/29 06:31:53;;;;;;;;;4.33;2.67;;;;;15.38;54.67;102048.28;5074855;27;45427;-67
2023/05/29 06:34:18;;;;;;;;;4.33;2.67;;;;;15.40;54.35;102057.97;5074882;27;46653;-67
2023/05/29 06:36:44;;;;;;;;;3.00;3.00;;;;;15.42;54.51;102058.81;5074832;27;45373;-67
2023/05/29 06:39:10;;;;;;;;;2.00;1.00;;;;;15.37;54.82;102025.31;5073973;27;45578;-67
2023/05/29 06:41:35;;;;;;;;;5.00;2.33;;;;;15.48;54.35;102047.16;5074632;27;46036;-67
2023/05/29 06:44:01;;;;;;;;;1.00;1.00;;;;;15.47;54.30;102043.66;5073065;28;47224;-66
2023/05/29 06:46:26;;;;;;;;;3.00;2.33;;;;;15.45;53.77;102044.59;5074615;27;45444;-66
2023/05/29 06:48:51;;;;;;;;;1.67;1.67;;;;;15.48;53.88;102042.75;5074983;27;45764;-66
2023/05/29 06:51:17;;;;;;;;;6.00;1.00;;;;;15.53;53.97;102052.41;5073805;27;45384;-66
2023/05/29 06:53:43;;;;;;;;;2.67;1.67;;;;;15.62;53.69;102052.19;5074202;27;46268;-66
2023/05/29 06:56:08;;;;;;;;;2.67;1.00;;;;;15.70;53.60;102050.22;5074284;28;45359;-66
2023/05/29 06:58:34;;;;;;;;;2.67;2.33;;;;;15.78;53.11;102050.94;5073739;27;45498;-66
2023/05/29 07:01:00;;;;;;;;;2.33;1.00;;;;;15.98;52.87;102036.31;5074801;27;45502;-66
2023/05/29 07:03:26;;;;;;;;;2.67;2.00;;;;;16.70;51.73;102054.81;5073689;27;46266;-67
2023/05/29 07:05:52;;;;;;;;;2.00;2.00;;;;;17.17;49.91;102047.31;5066730;28;46629;-67
2023/05/29 07:08:17;;;;;;;;;2.67;0.67;;;;;17.12;49.98;102045.69;5074595;27;45531;-67
2023/05/29 07:10:42;;;;;;;;;4.67;2.00;;;;;17.15;50.05;102061.56;5073462;27;45443;-67
2023/05/29 07:13:08;;;;;;;;;1.33;1.00;;;;;16.96;49.40;102059.47;5074413;27;45480;-67
2023/05/29 07:15:34;;;;;;;;;1.33;1.33;;;;;16.93;50.50;102059.53;5073889;27;45464;-66
2023/05/29 07:18:00;;;;;;;;;2.00;1.00;;;;;17.00;49.81;102041.59;5075131;28;45446;-67
2023/05/29 07:20:25;;;;;;;;;5.33;3.33;;;;;17.78;49.09;102056.13;5078373;27;45386;-67
2023/05/29 07:22:51;;;;;;;;;2.00;2.00;;;;;18.04;48.05;102064.19;5077230;27;46511;-67
2023/05/29 07:25:16;;;;;;;;;2.00;2.00;;;;;17.92;47.82;102061.91;5078059;27;45355;-67
2023/05/29 07:27:41;;;;;;;;;2.67;1.00;;;;;17.61;48.48;102054.84;5077680;27;45683;-67
2023/05/29 07:30:07;;;;;;;;;2.00;2.00;;;;;17.59;48.33;102056.72;5078006;27;45327;-69
2023/05/29 07:32:33;;;;;;;;;6.00;3.00;;;;;17.36;48.17;102052.94;5077400;27;46329;-69
2023/05/29 07:34:58;;;;;;;;;3.67;1.33;;;;;17.23;48.62;102051.59;5077239;27;45325;-69
2023/05/29 07:37:24;;;;;;;;;2.00;2.00;;;;;17.22;49.46;102047.16;5077787;27;45839;-67
2023/05/29 07:39:49;;;;;;;;;3.00;3.00;;;;;17.30;48.99;102054.94;5077786;27;45532;-70
2023/05/29 07:42:15;;;;;;;;;2.67;2.00;;;;;17.27;48.67;102047.91;5076756;27;47007;-70
2023/05/29 07:44:42;;;;;;;;;4.00;1.00;;;;;17.29;49.07;102045.22;5077630;27;45288;-69
2023/05/29 07:47:09;;;;;;;;;3.33;2.00;;;;;17.26;49.03;102043.50;5077381;27;45817;-69
2023/05/29 07:49:35;;;;;;;;;3.33;1.33;;;;;17.32;49.32;102058.41;5077814;28;45498;-70
2023/05/29 07:52:01;;;;;;;;;1.00;1.00;;;;;17.45;48.69;102066.91;5076905;27;45376;-69
2023/05/29 07:54:27;;;;;;;;;3.00;2.67;;;;;18.01;47.38;102064.28;5077090;27;45681;-69
2023/05/29 07:56:52;;;;;;;;;5.67;1.00;;;;;18.46;46.91;102062.78;5077622;27;46009;-70
2023/05/29 07:59:17;;;;;;;;;1.00;1.00;;;;;18.56;46.41;102055.31;5077304;27;45490;-70
2023/05/29 08:01:44;;;;;;;;;3.00;3.00;;;;;18.69;46.20;102061.06;5077013;27;45574;-68
2023/05/29 08:04:09;;;;;;;;;1.00;1.00;;;;;18.61;45.34;102051.56;5076863;27;45485;-70
2023/05/29 08:06:36;;;;;;;;;4.33;2.33;;;;;18.86;45.51;102058.69;5077152;27;45342;-70
2023/05/29 08:09:01;;;;;;;;;7.33;5.00;;;;;18.90;45.86;102079.03;5077563;27;45304;-71
2023/05/29 08:11:27;;;;;;;;;4.33;2.00;;;;;18.83;45.31;102064.13;5076360;27;45696;-69
2023/05/29 08:13:52;;;;;;;;;2.00;2.00;;;;;19.12;45.32;102064.88;5076618;27;45442;-71
2023/05/29 08:16:18;;;;;;;;;2.00;2.00;;;;;19.53;43.55;102065.06;5076917;27;45670;-68
2023/05/29 08:18:43;;;;;;;;;5.00;2.00;;;;;19.78;43.30;102061.44;5077194;27;45812;-69
2023/05/29 08:21:09;;;;;;;;;3.00;1.00;;;;;20.16;42.69;102053.69;5076374;27;46527;-68
2023/05/29 08:23:35;;;;;;;;;4.00;1.00;;;;;20.41;42.48;102063.34;5076387;27;45397;-67
2023/05/29 08:26:02;;;;;;;;;2.00;1.33;;;;;20.39;42.80;102075.88;5076780;27;45326;-68
2023/05/29 08:28:28;;;;;;;;;1.33;1.00;;;;;20.57;42.05;102060.84;5076859;27;45507;-68
2023/05/29 08:30:53;;;;;;;;;4.00;1.33;;;;;21.29;41.56;102059.41;5075941;27;45488;-70
2023/05/29 08:33:18;;;;;;;;;4.67;3.00;;;;;21.48;40.50;102071.00;5076677;27;45530;-67
2023/05/29 08:35:44;;;;;;;;;4.00;2.67;;;;;21.22;40.84;102058.84;5076650;27;45308;-67
2023/05/29 08:38:09;;;;;;;;;2.00;2.00;;;;;20.83;40.77;102032.97;5077000;27;45340;-68
2023/05/29 08:40:35;;;;;;;;;4.00;3.00;;;;;20.88;41.63;102065.72;5076012;27;46797;-67
2023/05/29 08:43:10;;;;;;;;;4.33;2.33;;;;;20.60;41.97;102058.91;5076464;27;46506;-67
2023/05/29 08:45:41;;;;;;;;;3.00;2.33;;;;;20.22;42.62;102045.38;5076421;27;45652;-66
2023/05/29 08:48:09;;;;;;;;;4.00;1.00;;;;;20.12;42.67;102065.44;5076590;27;45423;-66
2023/05/29 08:50:35;;;;;;;;;4.00;3.00;;;;;19.89;42.55;102058.38;5075696;28;45499;-69
2023/05/29 08:53:01;;;;;;;;;3.67;3.33;;;;;19.77;43.03;102068.59;5075819;27;45462;-68
2023/05/29 08:55:26;;;;;;;;;5.00;3.00;;;;;19.61;42.94;102070.13;5075452;27;45770;-67
2023/05/29 08:57:52;;;;;;;;;5.00;3.00;;;;;19.54;43.64;102052.63;5076427;27;45775;-67
2023/05/29 09:00:20;;;;;;;;;3.67;2.00;;;;;19.71;43.38;102070.63;5075252;27;45745;-66
2023/05/29 09:02:48;;;;;;;;;2.00;2.00;;;;;20.00;42.45;102072.16;5074421;27;45500;-68
2023/05/29 09:05:14;;;;;;;;;4.00;1.67;;;;;20.09;42.99;102077.13;5075304;27;45509;-67
2023/05/29 09:07:40;;;;;;;;;4.33;2.67;;;;;20.15;42.71;102084.88;5074976;27;45376;-66
2023/05/29 09:10:07;;;;;;;;;4.67;2.33;;;;;20.13;42.91;102091.25;5074615;27;46190;-67
2023/05/29 09:12:34;;;;;;;;;6.00;2.00;;;;;20.31;42.88;102085.09;5074573;27;45439;-67
2023/05/29 09:14:59;;;;;;;;;3.00;1.33;;;;;20.56;42.59;102078.69;5074442;27;46018;-68
2023/05/29 09:17:30;;;;;;;;;4.33;2.00;;;;;20.97;42.28;102084.06;5074948;27;45570;-70
2023/05/29 09:19:56;;;;;;;;;4.00;2.67;;;;;21.04;41.78;102066.78;5075832;27;45460;-71
2023/05/29 09:22:21;;;;;;;;;3.33;2.33;;;;;21.24;42.10;102090.91;5078956;27;45738;-67
2023/05/29 09:24:48;;;;;;;;;2.67;2.00;;;;;21.12;41.27;102055.72;5078914;27;45426;-69
2023/05/29 09:27:14;;;;;;;;;2.33;1.67;;;;;21.07;41.46;102068.44;5078927;27;45304;-69
2023/05/29 09:29:40;;;;;;;;;3.00;1.67;;;;;21.20;41.59;102087.50;5078093;27;46443;-68
2023/05/29 09:32:15;;;;;;;;;5.00;2.00;;;;;21.30;41.62;102083.44;5077399;27;45494;-68
2023/05/29 09:34:42;;;;;;;;;2.00;2.00;;;;;21.50;41.53;102073.63;5078661;27;45320;-71
2023/05/29 09:37:09;;;;;;;;;4.00;1.67;;;;;21.97;41.66;102085.69;5077436;27;45895;-72
2023/05/29 09:39:45;;;;;;;;;5.33;2.00;;;;;22.58;39.34;102082.59;5077609;27;47481;-71
2023/05/29 09:42:11;;;;;;;;;4.00;2.33;;;;;24.16;39.02;102069.41;5076344;27;46084;-70
2023/05/29 09:44:36;;;;;;;;;5.67;2.67;;;;;26.04;35.35;102070.28;5077451;27;45526;-69
2023/05/29 09:47:02;;;;;;;;;3.00;3.00;;;;;27.88;33.52;102075.38;5078776;27;45411;-70
2023/05/29 09:49:27;;;;;;;;;2.33;2.33;;;;;29.57;31.25;102087.50;5078203;28;46635;-68
2023/05/29 09:51:59;;;;;;;;;2.33;2.33;;;;;31.14;29.11;102098.59;5078357;27;45398;-70
2023/05/29 09:54:28;;;;;;;;;3.33;2.67;;;;;32.53;28.36;102085.88;5078674;27;45389;-67
2023/05/29 09:56:56;;;;;;;;;3.33;2.00;;;;;33.75;26.67;102082.22;5078294;27;45328;-70
2023/05/29 09:59:24;;;;;;;;;3.33;2.67;;;;;35.04;26.02;102084.38;5078278;27;45450;-69
2023/05/29 10:02:01;;;;;;;;;4.00;2.00;;;;;35.78;26.89;102069.19;5078374;27;45399;-70
2023/05/29 10:04:27;;;;;;;;;3.67;2.33;;;;;36.29;23.86;102071.81;5078458;27;45386;-71
2023/05/29 10:06:56;;;;;;;;;3.33;2.67;;;;;36.89;23.10;102081.47;5078463;27;45347;-71
2023/05/29 10:09:25;;;;;;;;;6.00;3.00;;;;;37.22;21.14;102084.09;5078041;27;45312;-71
2023/05/29 10:11:57;;;;;;;;;8.67;2.33;;;;;37.62;20.74;102080.28;5077828;27;45383;-70
2023/05/29 10:14:25;;;;;;;;;4.33;2.67;;;;;38.07;22.02;102082.38;5077914;27;45347;-71
2023/05/29 10:16:55;;;;;;;;;3.67;2.67;;;;;38.34;20.78;102071.81;5078219;27;45261;-69
2023/05/29 10:19:26;;;;;;;;;4.33;3.00;;;;;38.78;20.65;102091.16;5076502;28;46647;-69
2023/05/29 10:21:55;;;;;;;;;4.33;3.00;;;;;38.91;20.02;102084.13;5077812;27;45410;-68
2023/05/29 10:24:21;;;;;;;;;4.00;2.67;;;;;39.08;19.47;102074.59;5078124;27;45393;-70
2023/05/29 10:26:49;;;;;;;;;1.33;1.33;;;;;39.22;18.81;102091.34;5077922;27;45366;-71
2023/05/29 10:29:43;;;;;;;;;37.00;31.50;;;;;39.11;20.19;102082.50;5077359;27;46137;-70
2023/05/29 10:32:32;;;;;;;;;4.33;2.67;;;;;39.09;21.22;102083.72;5077681;27;45435;-71
2023/05/29 10:35:13;;;;;;;;;7.33;4.33;;;;;39.04;19.01;102086.19;5077769;27;45308;-71
2023/05/29 10:38:02;;;;;;;;;1.67;1.67;;;;;39.25;19.80;102089.03;5077971;27;45412;-71
2023/05/29 10:40:28;;;;;;;;;6.67;4.00;;;;;38.54;18.78;102061.13;5077638;27;46170;-70
2023/05/29 10:43:03;;;;;;;;;6.00;5.00;;;;;38.36;19.19;102076.09;5077165;28;45458;-71
2023/05/29 10:45:28;;;;;;;;;3.00;3.00;;;;;38.37;19.31;102079.72;5077735;27;45305;-70
2023/05/29 10:47:53;;;;;;;;;4.00;4.00;;;;;37.94;19.34;102044.50;5077865;28;45375;-70
2023/05/29 10:50:55;;;;;;;;;2.00;2.00;;;;;37.63;19.81;102057.25;5077609;27;45355;-71
2023/05/29 10:53:31;;;;;;;;;5.00;4.00;;;;;37.42;19.96;102063.38;5075422;28;45411;-71
2023/05/29 10:55:59;;;;;;;;;4.67;4.67;;;;;36.95;19.62;102050.56;5077550;27;45305;-72
2023/05/29 10:58:25;;;;;;;;;4.00;4.00;;;;;36.45;20.14;102065.44;5077679;28;45399;-72
2023/05/29 11:00:57;;;;;;;;;3.00;2.67;;;;;35.59;20.63;102065.75;5077176;27;46386;-72
2023/05/29 11:03:32;;;;;;;;;5.33;4.33;;;;;34.47;21.23;102073.94;5069638;28;45446;-71
2023/05/29 11:06:18;;;;;;;;;3.67;3.67;;;;;33.10;22.35;102074.06;5076389;27;45513;-72
2023/05/29 11:08:53;;;;;;;;;5.00;3.00;;;;;32.13;23.28;102061.56;5067955;28;45459;-72
2023/05/29 11:11:41;;;;;;;;;4.00;3.00;;;;;30.98;23.91;102074.59;5077010;27;47085;-71
2023/05/29 11:14:08;;;;;;;;;7.00;3.33;;;;;30.19;24.93;102064.22;5067490;28;45391;-71
2023/05/29 11:16:33;;;;;;;;;5.33;4.67;;;;;29.48;25.80;102067.41;5076805;27;45458;-71
2023/05/29 11:19:04;;;;;;;;;5.00;4.00;;;;;28.92;26.36;102065.59;5076515;27;45434;-72
2023/05/29 11:21:33;;;;;;;;;7.67;3.33;;;;;28.27;27.31;102066.06;5076699;27;45713;-71